Terminal Aerodrome Forecast
Issued by NWS

Home | Current Version | Previous Version | Text Only | Print | Product List | Glossary On
Versions: 1 2 3 4 5 6 7 8 9 10 11 12 13 14 15 16 17 18 19 20 21 22 23 24 25 26 27 28 29 30
000
FTUS44 KHGX 220202 AAB
TAFUTS
TAF AMD
KUTS 220202Z 2202/2224 34010KT 4SM BR VCSH OVC005
     FM220900 36003KT 2SM BR VCSH OVC003
     FM221500 01004KT 4SM BR OVC005=

USA.gov is the U.S. government's official web portal to all federal, state and local government web resources and services.